Burna, Kentucky
Current Conditions -  °F | °C
As of 6:15 AM on Tuesday 27 Jan 2015 (Local Time) from K5M9 Reporting Station
Overcast Overcast  
Wind Chill: 27°   Ceiling: 2200
Heat Index: 33°   Visibility: 10mi
Dew Point: 31°   Wind: 7mph
Humidity: 91%   Direction: 330°NNW
Pressure: 29.98"   Gusts: NA
Location:  37.25°N, 88.36°W
Report Text: K5M9 271215Z AUTO 33006KT 10SM OVC022 01/00 A2998 RMK AO2 T00081005
Loading
Personal Weather Stations






























Interactive Weather Map New forecast layout! Learn more

10-Day Weather Forecast

Advertisements
Track Severe Weather on mobile